createdAt,value
2019-03-24T00:01:40.666Z,34.47
2019-03-24T00:04:06.433Z,35.03
2019-03-24T00:06:38.083Z,35.27
2019-03-24T00:09:09.507Z,34.80
2019-03-24T00:11:40.842Z,35.00
2019-03-24T00:14:12.299Z,33.93
2019-03-24T00:16:43.865Z,34.47
2019-03-24T00:19:15.791Z,33.53
2019-03-24T00:21:47.393Z,35.43
2019-03-24T00:24:19.335Z,33.90
2019-03-24T00:26:50.675Z,33.40
2019-03-24T00:29:22.123Z,33.20
2019-03-24T00:31:53.681Z,34.60
2019-03-24T00:34:25.343Z,34.57
2019-03-24T00:36:56.675Z,35.00
2019-03-24T00:39:28.331Z,33.90
2019-03-24T00:41:59.743Z,33.77
2019-03-24T00:44:31.317Z,34.13
2019-03-24T00:47:02.660Z,35.10
2019-03-24T00:49:34.078Z,34.90
2019-03-24T00:52:05.801Z,33.57
2019-03-24T00:54:37.397Z,34.00
2019-03-24T00:57:08.963Z,35.07
2019-03-24T00:59:40.327Z,35.47
2019-03-24T01:02:12.152Z,34.87
2019-03-24T01:04:43.691Z,35.87
2019-03-24T01:07:15.328Z,35.63
2019-03-24T01:09:46.778Z,34.57
2019-03-24T01:12:18.161Z,34.50
2019-03-24T01:14:49.780Z,35.37
2019-03-24T01:17:22.384Z,34.60
2019-03-24T01:19:53.807Z,34.40
2019-03-24T01:22:26.493Z,34.97
2019-03-24T01:24:57.913Z,35.40
2019-03-24T01:27:29.332Z,34.00
2019-03-24T01:30:01.033Z,35.57
2019-03-24T01:32:32.529Z,35.43
2019-03-24T01:35:04.763Z,33.27
2019-03-24T01:37:36.275Z,33.50
2019-03-24T01:40:07.742Z,33.40
2019-03-24T01:42:40.088Z,31.83
2019-03-24T01:45:12.769Z,33.53
2019-03-24T01:47:44.134Z,34.13
2019-03-24T01:50:15.519Z,31.80
2019-03-24T01:52:46.806Z,34.07
2019-03-24T01:55:18.105Z,33.33
2019-03-24T01:57:49.705Z,33.63
2019-03-24T02:00:21.009Z,33.30
2019-03-24T02:02:52.533Z,34.43
2019-03-24T02:05:24.152Z,33.87
2019-03-24T02:07:55.444Z,33.67
2019-03-24T02:10:26.836Z,36.13
2019-03-24T02:12:58.433Z,34.60
2019-03-24T02:15:30.096Z,34.73
2019-03-24T02:18:01.711Z,36.00
2019-03-24T02:20:33.518Z,35.90
2019-03-24T02:23:04.896Z,34.67
2019-03-24T02:25:36.775Z,35.40
2019-03-24T02:28:08.061Z,33.33
2019-03-24T02:30:39.958Z,34.27
2019-03-24T02:33:11.826Z,34.30
2019-03-24T02:35:43.446Z,35.93
2019-03-24T02:38:14.751Z,35.57
2019-03-24T02:40:46.530Z,36.20
2019-03-24T02:43:18.133Z,36.83
2019-03-24T02:45:50.530Z,36.07
2019-03-24T02:48:22.299Z,35.23
2019-03-24T02:50:53.881Z,35.63
2019-03-24T02:53:26.142Z,36.70
2019-03-24T02:55:57.984Z,37.07
2019-03-24T02:58:29.577Z,37.77
2019-03-24T03:01:01.532Z,36.17
2019-03-24T03:03:33.099Z,36.93
2019-03-24T03:06:04.901Z,36.50
2019-03-24T03:08:36.466Z,36.87
2019-03-24T03:11:08.437Z,36.57
2019-03-24T03:13:39.821Z,38.50
2019-03-24T03:16:11.203Z,37.40
2019-03-24T03:18:42.566Z,36.10
2019-03-24T03:21:14.460Z,38.43
2019-03-24T03:23:46.268Z,38.53
2019-03-24T03:26:18.741Z,39.17
2019-03-24T03:28:51.302Z,39.23
2019-03-24T03:31:22.640Z,40.30
2019-03-24T03:33:54.212Z,40.27
2019-03-24T03:36:26.571Z,38.73
2019-03-24T03:38:58.885Z,38.70
2019-03-24T03:41:30.937Z,38.37
2019-03-24T03:44:02.288Z,37.80
2019-03-24T03:46:33.872Z,38.33
2019-03-24T03:49:05.896Z,37.97
2019-03-24T03:51:38.322Z,38.83
2019-03-24T03:54:09.865Z,38.37
2019-03-24T03:56:42.286Z,38.50
2019-03-24T03:59:14.062Z,39.60
2019-03-24T04:01:45.376Z,38.37
2019-03-24T04:04:17.196Z,37.03
2019-03-24T04:06:48.749Z,38.73
2019-03-24T04:09:20.049Z,37.90
2019-03-24T04:11:51.361Z,37.70
2019-03-24T04:14:22.654Z,39.33
2019-03-24T04:17:06.085Z,38.53
2019-03-24T04:19:28.069Z,37.23
2019-03-24T04:21:59.373Z,38.30
2019-03-24T04:24:31.028Z,39.73
2019-03-24T04:27:02.356Z,39.03
2019-03-24T04:29:33.967Z,37.67
2019-03-24T04:32:05.289Z,36.30
2019-03-24T04:34:36.895Z,38.10
2019-03-24T04:37:08.626Z,38.00
2019-03-24T04:39:39.922Z,38.70
2019-03-24T04:42:11.260Z,37.10
2019-03-24T04:44:43.067Z,38.10
2019-03-24T04:47:16.845Z,37.37
2019-03-24T04:49:48.361Z,36.10
2019-03-24T04:52:19.673Z,36.40
2019-03-24T04:54:50.984Z,36.70
2019-03-24T04:57:22.868Z,37.63
2019-03-24T04:59:54.175Z,36.57
2019-03-24T05:02:25.811Z,36.53
2019-03-24T05:04:57.352Z,36.73
2019-03-24T05:07:28.967Z,36.33
2019-03-24T05:10:01.020Z,37.27
2019-03-24T05:12:33.316Z,37.97
2019-03-24T05:15:04.781Z,38.07
2019-03-24T05:17:36.257Z,37.13
2019-03-24T05:20:07.714Z,37.23
2019-03-24T05:22:40.229Z,36.33
2019-03-24T05:25:11.709Z,38.27
2019-03-24T05:27:44.346Z,39.50
2019-03-24T05:30:15.723Z,38.97
2019-03-24T05:32:47.257Z,41.07
2019-03-24T05:35:18.805Z,39.87
2019-03-24T05:37:50.345Z,38.13
2019-03-24T05:40:21.902Z,40.80
2019-03-24T05:42:53.226Z,40.90
2019-03-24T05:45:24.534Z,40.47
2019-03-24T05:47:56.076Z,41.67
2019-03-24T05:50:27.609Z,41.70
2019-03-24T05:52:58.934Z,40.67
2019-03-24T05:55:30.285Z,38.63
2019-03-24T05:58:02.809Z,38.27
2019-03-24T06:00:34.407Z,38.23
2019-03-24T06:03:06.091Z,37.60
2019-03-24T06:05:37.402Z,38.17
2019-03-24T06:08:08.714Z,37.80
2019-03-24T06:10:40.275Z,37.73
2019-03-24T06:13:11.935Z,39.27
2019-03-24T06:15:43.744Z,37.63
2019-03-24T06:18:15.275Z,37.17
2019-03-24T06:20:46.574Z,38.57
2019-03-24T06:23:17.884Z,37.40
2019-03-24T06:25:49.471Z,38.80
2019-03-24T06:28:21.271Z,40.40
2019-03-24T06:30:52.575Z,39.97
2019-03-24T06:33:24.208Z,39.90
2019-03-24T06:35:55.996Z,37.83
2019-03-24T06:38:27.292Z,37.10
2019-03-24T06:40:58.814Z,37.87
2019-03-24T06:43:30.516Z,37.17
2019-03-24T06:46:02.026Z,37.57
2019-03-24T06:48:33.634Z,37.87
2019-03-24T06:51:05.004Z,38.07
2019-03-24T06:53:37.278Z,38.50
2019-03-24T06:56:08.596Z,39.87
2019-03-24T06:58:40.453Z,40.83
2019-03-24T07:01:11.915Z,38.93
2019-03-24T07:03:43.315Z,42.37
2019-03-24T07:06:14.943Z,39.63
2019-03-24T07:08:46.497Z,38.77
2019-03-24T07:11:17.900Z,39.03
2019-03-24T07:13:49.688Z,39.77
2019-03-24T07:16:21.064Z,38.73
2019-03-24T07:18:52.358Z,39.37
2019-03-24T07:21:23.660Z,39.20
2019-03-24T07:23:55.021Z,38.23
2019-03-24T07:26:26.552Z,38.57
2019-03-24T07:28:57.955Z,37.60
2019-03-24T07:31:29.332Z,37.57
2019-03-24T07:34:00.802Z,37.90
2019-03-24T07:36:32.116Z,38.33
2019-03-24T07:39:05.152Z,37.77
2019-03-24T07:41:36.457Z,38.07
2019-03-24T07:44:07.824Z,38.77
2019-03-24T07:46:39.359Z,39.07
2019-03-24T07:49:10.873Z,38.67
2019-03-24T07:51:42.719Z,37.77
2019-03-24T07:54:15.072Z,39.33
2019-03-24T07:56:46.389Z,38.53
2019-03-24T07:59:19.033Z,40.03
2019-03-24T08:01:50.829Z,39.00
2019-03-24T08:04:22.125Z,38.80
2019-03-24T08:06:54.524Z,39.57
2019-03-24T08:09:25.811Z,38.70
2019-03-24T08:11:57.382Z,39.00
2019-03-24T08:14:29.629Z,38.30
2019-03-24T08:17:01.174Z,39.90
2019-03-24T08:19:32.717Z,38.63
2019-03-24T08:22:04.346Z,39.23
2019-03-24T08:24:35.714Z,38.27
2019-03-24T08:27:07.393Z,37.87
2019-03-24T08:29:38.947Z,37.60
2019-03-24T08:32:10.475Z,38.43
2019-03-24T08:34:41.765Z,37.50
2019-03-24T08:37:13.377Z,38.37
2019-03-24T08:39:44.594Z,39.43
2019-03-24T08:42:16.130Z,38.50
2019-03-24T08:44:47.496Z,38.27
2019-03-24T08:47:18.824Z,38.43
2019-03-24T08:49:50.433Z,38.33
2019-03-24T08:52:22.041Z,36.53
2019-03-24T08:54:53.560Z,37.87
2019-03-24T08:57:24.876Z,38.63
2019-03-24T08:59:56.441Z,36.77
2019-03-24T09:02:28.053Z,37.23
2019-03-24T09:04:59.650Z,36.90
2019-03-24T09:07:30.970Z,38.27
2019-03-24T09:10:02.544Z,37.40
2019-03-24T09:12:33.884Z,37.00
2019-03-24T09:15:05.899Z,37.13
2019-03-24T09:17:37.429Z,36.50
2019-03-24T09:20:09.408Z,36.87
2019-03-24T09:22:41.005Z,37.40
2019-03-24T09:25:13.031Z,37.17
2019-03-24T09:27:44.614Z,36.47
2019-03-24T09:30:29.194Z,37.90
2019-03-24T09:33:00.643Z,37.43
2019-03-24T09:35:32.145Z,37.27
2019-03-24T09:38:03.628Z,37.07
2019-03-24T09:40:35.218Z,37.37
2019-03-24T09:43:06.946Z,35.60
2019-03-24T09:45:38.550Z,36.20
2019-03-24T09:48:10.222Z,37.67
2019-03-24T09:50:41.758Z,37.60
2019-03-24T09:53:13.423Z,37.30
2019-03-24T09:55:44.720Z,37.33
2019-03-24T09:58:16.052Z,35.87
2019-03-24T10:00:48.108Z,36.37
2019-03-24T10:03:19.413Z,37.20
2019-03-24T10:05:50.798Z,35.47
2019-03-24T10:08:22.121Z,35.40
2019-03-24T10:10:53.584Z,36.00
2019-03-24T10:13:24.906Z,34.90
2019-03-24T10:15:56.625Z,34.87
2019-03-24T10:18:28.186Z,34.17
2019-03-24T10:20:59.787Z,35.70
2019-03-24T10:23:31.824Z,35.73
2019-03-24T10:26:03.468Z,35.80
2019-03-24T10:28:35.267Z,35.33
2019-03-24T10:31:06.918Z,35.03
2019-03-24T10:33:38.536Z,34.73
2019-03-24T10:36:09.844Z,36.03
2019-03-24T10:38:41.466Z,36.20
2019-03-24T10:41:12.999Z,36.30
2019-03-24T10:43:44.805Z,36.50
2019-03-24T10:46:16.390Z,35.93
2019-03-24T10:48:48.234Z,41.03
2019-03-24T10:51:19.961Z,34.70
2019-03-24T10:53:51.290Z,34.90
2019-03-24T10:56:22.921Z,34.50
2019-03-24T10:58:54.476Z,34.60
2019-03-24T11:01:26.039Z,35.47
2019-03-24T11:03:57.718Z,36.50
2019-03-24T11:06:29.262Z,36.70
2019-03-24T11:09:00.578Z,35.83
2019-03-24T11:11:31.966Z,36.27
2019-03-24T11:14:04.982Z,35.90
2019-03-24T11:16:36.365Z,34.77
2019-03-24T11:19:07.760Z,36.40
2019-03-24T11:21:57.390Z,34.97
2019-03-24T11:24:29.785Z,33.57
2019-03-24T11:27:02.362Z,33.63
2019-03-24T11:29:34.652Z,34.33
2019-03-24T11:32:06.023Z,33.63
2019-03-24T11:34:37.340Z,34.43
2019-03-24T11:37:08.744Z,34.53
2019-03-24T11:39:40.055Z,34.83
2019-03-24T11:42:11.358Z,35.43
2019-03-24T11:44:42.664Z,44.07
2019-03-24T11:47:13.978Z,36.30
2019-03-24T11:49:49.190Z,34.13
2019-03-24T11:52:20.546Z,35.30
2019-03-24T11:54:52.082Z,36.37
2019-03-24T11:57:24.354Z,35.70
2019-03-24T11:59:55.674Z,35.20
2019-03-24T12:02:27.221Z,34.03
2019-03-24T12:04:58.530Z,35.50
2019-03-24T12:07:30.697Z,36.93
2019-03-24T12:10:02.018Z,36.67
2019-03-24T12:12:33.340Z,36.13
2019-03-24T12:15:05.489Z,35.37
2019-03-24T12:17:37.412Z,37.37
2019-03-24T12:20:09.237Z,35.50
2019-03-24T12:22:40.874Z,34.73
2019-03-24T12:25:12.249Z,35.90
2019-03-24T12:27:43.873Z,33.47
2019-03-24T12:30:15.480Z,34.97
2019-03-24T12:32:47.021Z,35.07
2019-03-24T12:35:18.554Z,35.57
2019-03-24T12:37:50.275Z,35.47
2019-03-24T12:40:21.583Z,34.00
2019-03-24T12:42:52.985Z,34.67
2019-03-24T12:45:24.356Z,36.00
2019-03-24T12:47:56.652Z,35.50
2019-03-24T12:50:31.574Z,33.87
2019-03-24T12:53:02.173Z,35.27
2019-03-24T12:55:33.542Z,34.20
2019-03-24T12:58:05.238Z,34.00
2019-03-24T13:00:39.203Z,34.83
2019-03-24T13:03:10.661Z,32.87
2019-03-24T13:05:42.313Z,34.80
2019-03-24T13:08:18.070Z,36.30
2019-03-24T13:10:51.505Z,34.60
2019-03-24T13:13:22.924Z,33.40
2019-03-24T13:15:54.934Z,35.73
2019-03-24T13:18:26.553Z,35.60
2019-03-24T13:20:58.181Z,35.07
2019-03-24T13:23:30.021Z,36.03
2019-03-24T13:26:01.549Z,55.40
2019-03-24T13:28:33.121Z,35.97
2019-03-24T13:31:04.579Z,35.43
2019-03-24T13:33:35.905Z,35.83
2019-03-24T13:36:12.821Z,35.03
2019-03-24T13:38:44.201Z,34.83
2019-03-24T13:41:15.805Z,34.57
2019-03-24T13:43:47.424Z,34.20
2019-03-24T13:46:19.108Z,36.60
2019-03-24T13:48:50.641Z,34.60
2019-03-24T13:51:22.044Z,36.20
2019-03-24T13:53:53.964Z,34.33
2019-03-24T13:56:25.539Z,34.10
2019-03-24T13:58:58.626Z,35.00
2019-03-24T14:01:30.437Z,35.43
2019-03-24T14:04:01.901Z,35.40
2019-03-24T14:06:33.931Z,35.60
2019-03-24T14:09:09.577Z,33.30
2019-03-24T14:11:41.195Z,34.40
2019-03-24T14:14:12.518Z,33.93
2019-03-24T14:16:46.396Z,34.37
2019-03-24T14:19:17.536Z,33.43
2019-03-24T14:21:59.172Z,34.20
2019-03-24T14:24:36.137Z,33.17
2019-03-24T14:27:21.121Z,33.80
2019-03-24T14:30:02.812Z,32.97
2019-03-24T14:32:49.524Z,32.33
2019-03-24T14:35:24.657Z,32.63
2019-03-24T14:37:56.235Z,33.87
2019-03-24T14:40:27.765Z,32.67
2019-03-24T14:42:59.295Z,33.13
2019-03-24T14:45:30.845Z,33.27
2019-03-24T14:48:02.247Z,33.30
2019-03-24T14:50:34.598Z,33.43
2019-03-24T14:53:07.942Z,32.03
2019-03-24T14:55:39.559Z,32.13
2019-03-24T14:58:11.478Z,32.53
2019-03-24T15:00:43.694Z,31.70
2019-03-24T15:03:15.077Z,31.10
2019-03-24T15:05:46.917Z,30.43
2019-03-24T15:08:18.584Z,31.73
2019-03-24T15:10:50.081Z,30.53
2019-03-24T15:13:21.781Z,29.13
2019-03-24T15:15:53.764Z,29.83
2019-03-24T15:18:25.554Z,29.10
2019-03-24T15:21:05.737Z,29.03
2019-03-24T15:23:30.840Z,27.50
2019-03-24T15:26:02.703Z,26.27
2019-03-24T15:28:34.322Z,27.57
2019-03-24T15:31:05.649Z,26.93
2019-03-24T15:33:37.294Z,27.00
2019-03-24T15:36:20.350Z,26.87
2019-03-24T15:38:52.400Z,27.87
2019-03-24T15:41:23.718Z,27.00
2019-03-24T15:43:55.322Z,26.60
2019-03-24T15:46:28.182Z,30.37
2019-03-24T15:48:59.447Z,28.17
2019-03-24T15:51:31.081Z,28.63
2019-03-24T15:54:02.385Z,27.97
2019-03-24T15:56:33.920Z,29.27
2019-03-24T15:59:05.310Z,29.23
2019-03-24T16:01:39.773Z,26.93
2019-03-24T16:04:17.907Z,28.37
2019-03-24T16:06:55.164Z,27.03
2019-03-24T16:09:42.007Z,27.43
2019-03-24T16:12:25.215Z,27.57
2019-03-24T16:14:57.641Z,27.03
2019-03-24T16:17:29.247Z,27.03
2019-03-24T16:20:01.384Z,27.47
2019-03-24T16:22:32.970Z,26.30
2019-03-24T16:25:04.752Z,25.20
2019-03-24T16:27:36.451Z,25.90
2019-03-24T16:30:08.616Z,26.57
2019-03-24T16:32:40.699Z,27.63
2019-03-24T16:35:12.313Z,25.77
2019-03-24T16:37:43.713Z,25.97
2019-03-24T16:40:15.105Z,25.17
2019-03-24T16:42:46.774Z,29.43
2019-03-24T16:45:18.337Z,24.97
2019-03-24T16:47:50.183Z,27.63
2019-03-24T16:50:21.727Z,25.30
2019-03-24T16:52:53.067Z,25.23
2019-03-24T16:55:24.375Z,26.53
2019-03-24T16:57:55.707Z,24.50
2019-03-24T17:00:27.397Z,23.67
2019-03-24T17:02:58.807Z,23.23
2019-03-24T17:05:30.138Z,31.70
2019-03-24T17:08:01.691Z,23.20
2019-03-24T17:10:33.540Z,23.83
2019-03-24T17:13:05.381Z,23.97
2019-03-24T17:15:36.989Z,33.40
2019-03-24T17:21:11.301Z,23.50
2019-03-24T17:23:43.102Z,21.50
2019-03-24T17:26:14.657Z,20.67
2019-03-24T17:28:47.099Z,20.90
2019-03-24T17:31:19.004Z,21.33
2019-03-24T17:33:50.779Z,20.47
2019-03-24T17:36:22.601Z,19.70
2019-03-24T17:38:54.649Z,18.87
2019-03-24T17:41:26.742Z,17.77
2019-03-24T17:44:03.349Z,16.87
2019-03-24T17:46:32.433Z,16.47
2019-03-24T17:49:03.899Z,17.67
2019-03-24T17:51:35.264Z,17.07
2019-03-24T17:54:06.685Z,16.13
2019-03-24T17:56:38.149Z,16.53
2019-03-24T17:59:09.742Z,16.73
2019-03-24T18:01:41.070Z,15.13
2019-03-24T18:04:12.379Z,14.63
2019-03-24T18:06:43.691Z,16.07
2019-03-24T18:09:15.509Z,15.90
2019-03-24T18:11:47.063Z,16.03
2019-03-24T18:14:18.366Z,14.97
2019-03-24T18:16:50.202Z,14.50
2019-03-24T18:19:21.791Z,14.30
2019-03-24T18:21:53.116Z,15.43
2019-03-24T18:24:24.882Z,14.97
2019-03-24T18:26:56.211Z,14.37
2019-03-24T18:29:28.027Z,14.80
2019-03-24T18:31:59.703Z,15.07
2019-03-24T18:34:31.218Z,15.10
2019-03-24T18:37:03.423Z,14.97
2019-03-24T18:39:36.088Z,14.47
2019-03-24T18:42:07.839Z,14.73
2019-03-24T18:44:39.470Z,14.13
2019-03-24T18:47:11.091Z,14.37
2019-03-24T18:49:42.539Z,15.23
2019-03-24T18:52:22.311Z,14.63
2019-03-24T18:54:47.437Z,14.70
2019-03-24T18:57:19.306Z,14.27
2019-03-24T18:59:50.707Z,14.17
2019-03-24T19:02:22.936Z,14.00
2019-03-24T19:04:54.603Z,12.90
2019-03-24T19:07:26.012Z,12.70
2019-03-24T19:09:58.122Z,12.83
2019-03-24T19:12:29.576Z,13.23
2019-03-24T19:15:00.990Z,12.67
2019-03-24T19:17:32.780Z,12.50
2019-03-24T19:20:04.978Z,12.10
2019-03-24T19:22:37.671Z,11.77
2019-03-24T19:25:09.331Z,11.73
2019-03-24T19:27:40.872Z,11.00
2019-03-24T19:30:12.913Z,12.37
2019-03-24T19:32:44.350Z,12.70
2019-03-24T19:35:17.024Z,12.10
2019-03-24T19:37:48.330Z,11.97
2019-03-24T19:40:27.475Z,12.67
2019-03-24T19:42:59.118Z,11.40
2019-03-24T19:45:30.541Z,12.80
2019-03-24T19:48:01.997Z,12.73
2019-03-24T19:50:33.595Z,12.43
2019-03-24T19:53:05.363Z,13.47
2019-03-24T19:55:36.867Z,13.00
2019-03-24T19:58:08.329Z,13.70
2019-03-24T20:00:39.951Z,13.67
2019-03-24T20:03:11.415Z,13.57
2019-03-24T20:05:43.040Z,13.83
2019-03-24T20:08:14.483Z,14.70
2019-03-24T20:10:45.854Z,15.30
2019-03-24T20:13:17.448Z,15.20
2019-03-24T20:15:49.020Z,16.17
2019-03-24T20:18:20.315Z,18.63
2019-03-24T20:20:52.237Z,16.83
2019-03-24T20:23:23.812Z,19.07
2019-03-24T20:25:55.163Z,17.73
2019-03-24T20:28:26.879Z,18.47
2019-03-24T20:30:58.334Z,18.67
2019-03-24T20:33:32.449Z,19.30
2019-03-24T20:36:03.323Z,19.43
2019-03-24T20:38:34.936Z,20.20
2019-03-24T20:41:06.795Z,20.17
2019-03-24T20:43:38.103Z,20.87
2019-03-24T20:46:09.706Z,22.53
2019-03-24T20:48:41.239Z,23.17
2019-03-24T20:51:12.603Z,23.87
2019-03-24T20:53:43.914Z,26.30
2019-03-24T20:56:15.222Z,26.30
2019-03-24T20:58:46.995Z,26.53
2019-03-24T21:01:18.896Z,26.53
2019-03-24T21:03:50.197Z,28.07
2019-03-24T21:06:21.477Z,27.60
2019-03-24T21:08:53.070Z,29.23
2019-03-24T21:11:26.206Z,28.23
2019-03-24T21:13:57.585Z,28.37
2019-03-24T21:16:29.108Z,27.27
2019-03-24T21:19:00.717Z,28.57
2019-03-24T21:21:32.005Z,28.97
2019-03-24T21:24:03.531Z,28.63
2019-03-24T21:26:35.060Z,28.97
2019-03-24T21:29:06.587Z,28.87
2019-03-24T21:31:38.254Z,29.30
2019-03-24T21:34:09.786Z,29.90
2019-03-24T21:36:41.160Z,29.50
2019-03-24T21:39:12.538Z,29.57
2019-03-24T21:41:44.383Z,29.60
2019-03-24T21:44:15.927Z,29.33
2019-03-24T21:46:47.304Z,29.40
2019-03-24T21:49:18.836Z,29.73
2019-03-24T21:51:50.133Z,29.60
2019-03-24T21:54:21.441Z,30.33
2019-03-24T21:56:53.000Z,29.23
2019-03-24T21:59:24.815Z,30.60
2019-03-24T22:01:56.282Z,30.70
2019-03-24T22:04:28.055Z,30.03
2019-03-24T22:07:00.069Z,29.77
2019-03-24T22:09:31.619Z,30.43
2019-03-24T22:12:03.992Z,29.83
2019-03-24T22:14:35.436Z,32.93
2019-03-24T22:17:07.105Z,31.67
2019-03-24T22:19:38.823Z,30.80
2019-03-24T22:22:10.332Z,30.97
2019-03-24T22:24:41.644Z,31.20
2019-03-24T22:27:13.442Z,32.17
2019-03-24T22:29:44.977Z,31.60
2019-03-24T22:32:16.487Z,30.73
2019-03-24T22:34:48.027Z,32.30
2019-03-24T22:37:19.543Z,30.60
2019-03-24T22:39:51.095Z,32.47
2019-03-24T22:42:22.380Z,30.67
2019-03-24T22:44:53.674Z,31.20
2019-03-24T22:47:24.986Z,30.13
2019-03-24T22:49:56.287Z,30.87
2019-03-24T22:52:27.915Z,29.00
2019-03-24T22:54:59.702Z,30.20
2019-03-24T22:57:32.694Z,31.17
2019-03-24T23:00:04.820Z,28.90
2019-03-24T23:02:37.218Z,28.80
2019-03-24T23:05:08.636Z,28.37
2019-03-24T23:07:39.935Z,28.03
2019-03-24T23:10:11.675Z,27.33
2019-03-24T23:12:43.266Z,27.67
2019-03-24T23:15:14.639Z,26.43
2019-03-24T23:17:46.012Z,27.57
2019-03-24T23:20:36.268Z,26.67
2019-03-24T23:23:07.638Z,27.30
2019-03-24T23:25:39.111Z,26.40
2019-03-24T23:28:10.475Z,24.03
2019-03-24T23:30:42.088Z,24.73
2019-03-24T23:33:13.446Z,21.70
2019-03-24T23:35:45.097Z,21.50
2019-03-24T23:38:16.616Z,19.77
2019-03-24T23:40:48.259Z,19.17
2019-03-24T23:43:19.807Z,19.47
2019-03-24T23:45:51.275Z,18.23
2019-03-24T23:48:23.716Z,18.53
2019-03-24T23:50:55.333Z,17.13
2019-03-24T23:53:26.880Z,16.40
2019-03-24T23:55:58.184Z,17.03
2019-03-24T23:58:40.379Z,14.90
